Darstellungsparameter: Aktuell verwendete Einstellungen:
Skalierung der Graphiken ... ?
xyx+y,   Skalierungsfaktor:      Skalierung: Modus: x, Faktor: 1
Darstellungszeitraum ... ?
Vom - - bis: - -   Zeitraum: 14.03.2016 - 14.03.2016
Min/Max/Avg-Anzeige ... ?
Zeige MMA aktuell
Zeige MMA Monat
Zeige MMA alles
Zeige --A aktuell
Zeige --A Monat
Zeige --A alles
Keine MMA-Anzeige
MMA:
Keine MMA-Graphiken
MMA-Basis: 14.03.2016 - 14.03.2016
Quicknavigation für Darstellung... ?
Tage:      1T, 2T, 3T, 5T -1T -2T -3T -5T +1T +2T +3T +5T
Wochen: 1W, 2W, 3W -1W -2W -3W +1W +2W +3W
Monate: 1M, 3M, 6M -1M -3M -6M +1M +3M +6M
Jahre:    1J, 3J, 5J, 10J -1J -3J -5J -10J +1J +3J +5J +10J
Nutze für die Darstellung ... ?
Originaldaten oder Mittelwerte auf ...
Stundenbasis Tagesbasis Wochenbasis
Monatsbasis Jahresbasis      Datenbasis: Original-Daten
Darstellen als:
Statistik (Auto) Statistik J:M      Darstellung:
Zur Graphik,    zurück zur Übersicht aller Sensoren.
 
Tabellarische Datenbersicht: ?
 
Sensor: Nr:Datum:Temp:Feuchte:Taupunkt:
Aussen-T/F 1 14-03-2016 00:00:00 1.3 C 87 % -0.62 C
2 14-03-2016 00:05:00 1.3 C 87 % -0.62 C
3 14-03-2016 00:10:00 1.3 C 86 % -0.78 C
4 14-03-2016 00:15:00 1.1 C 86 % -0.97 C
5 14-03-2016 00:20:00 0.9 C 86 % -1.17 C
6 14-03-2016 00:25:00 0.8 C 87 % -1.11 C
7 14-03-2016 00:30:00 0.7 C 87 % -1.21 C
8 14-03-2016 00:35:00 0.6 C 87 % -1.31 C
9 14-03-2016 00:40:00 0.5 C 88 % -1.25 C
10 14-03-2016 00:45:00 0.5 C 88 % -1.25 C
11 14-03-2016 00:50:00 0.5 C 88 % -1.25 C
12 14-03-2016 00:55:00 0.6 C 88 % -1.15 C
13 14-03-2016 01:00:00 0.6 C 88 % -1.15 C
14 14-03-2016 01:05:00 0.6 C 88 % -1.15 C
15 14-03-2016 01:10:00 0.5 C 88 % -1.25 C
16 14-03-2016 01:15:00 0.5 C 88 % -1.25 C
17 14-03-2016 01:20:00 0.4 C 88 % -1.35 C
18 14-03-2016 01:25:00 0.5 C 89 % -1.1 C
19 14-03-2016 01:30:00 0.6 C 89 % -1 C
20 14-03-2016 01:35:00 0.6 C 88 % -1.15 C
21 14-03-2016 01:40:00 0.6 C 88 % -1.15 C
22 14-03-2016 01:45:00 0.6 C 88 % -1.15 C
23 14-03-2016 01:50:00 0.5 C 88 % -1.25 C
24 14-03-2016 01:55:00 0.4 C 88 % -1.35 C
25 14-03-2016 02:00:00 0.4 C 89 % -1.2 C
Sensor: Nr:Datum:Temp:Feuchte:Taupunkt:
Aussen-T/F 26 14-03-2016 02:05:00 0.4 C 89 % -1.2 C
27 14-03-2016 02:10:00 0.4 C 89 % -1.2 C
28 14-03-2016 02:15:00 0.4 C 89 % -1.2 C
29 14-03-2016 02:20:00 0.4 C 89 % -1.2 C
30 14-03-2016 02:25:00 0.6 C 88 % -1.15 C
31 14-03-2016 02:30:00 0.7 C 89 % -0.9 C
32 14-03-2016 02:35:00 0.8 C 88 % -0.96 C
33 14-03-2016 02:40:00 1.1 C 87 % -0.82 C
34 14-03-2016 02:45:00 1.3 C 86 % -0.78 C
35 14-03-2016 02:50:00 1.4 C 85 % -0.84 C
36 14-03-2016 02:55:00 1.5 C 84 % -0.9 C
37 14-03-2016 03:00:00 1.5 C 84 % -0.9 C
38 14-03-2016 03:05:00 1.6 C 84 % -0.8 C
39 14-03-2016 03:10:00 1.6 C 84 % -0.8 C
40 14-03-2016 03:15:00 1.6 C 84 % -0.8 C
41 14-03-2016 03:20:00 1.7 C 84 % -0.71 C
42 14-03-2016 03:25:00 1.7 C 84 % -0.71 C
43 14-03-2016 03:30:00 1.8 C 84 % -0.61 C
44 14-03-2016 03:35:00 1.8 C 83 % -0.77 C
45 14-03-2016 03:40:00 1.8 C 83 % -0.77 C
46 14-03-2016 03:45:00 1.8 C 83 % -0.77 C
47 14-03-2016 03:50:00 1.9 C 83 % -0.67 C
48 14-03-2016 03:55:00 1.9 C 83 % -0.67 C
49 14-03-2016 04:00:00 1.9 C 83 % -0.67 C
50 14-03-2016 04:05:00 1.9 C 82 % -0.84 C
Sensor: Nr:Datum:Temp:Feuchte:Taupunkt:
Aussen-T/F 51 14-03-2016 04:10:00 1.9 C 83 % -0.67 C
52 14-03-2016 04:15:00 1.9 C 83 % -0.67 C
53 14-03-2016 04:20:00 1.9 C 83 % -0.67 C
54 14-03-2016 04:25:00 1.9 C 83 % -0.67 C
55 14-03-2016 04:30:00 1.9 C 83 % -0.67 C
56 14-03-2016 04:35:00 1.9 C 83 % -0.67 C
57 14-03-2016 04:40:00 2 C 82 % -0.74 C
58 14-03-2016 04:45:00 2.1 C 83 % -0.48 C
59 14-03-2016 04:50:00 2.1 C 82 % -0.64 C
60 14-03-2016 04:55:00 2.1 C 83 % -0.48 C
61 14-03-2016 05:00:00 2.1 C 82 % -0.64 C
62 14-03-2016 05:05:00 2.1 C 82 % -0.64 C
63 14-03-2016 05:10:00 2.1 C 82 % -0.64 C
64 14-03-2016 05:15:00 2.1 C 82 % -0.64 C
65 14-03-2016 05:20:00 2.1 C 82 % -0.64 C
66 14-03-2016 05:25:00 1.9 C 82 % -0.84 C
67 14-03-2016 05:30:00 1.9 C 82 % -0.84 C
68 14-03-2016 05:35:00 1.8 C 82 % -0.94 C
69 14-03-2016 05:40:00 1.8 C 83 % -0.77 C
70 14-03-2016 05:45:00 1.7 C 83 % -0.87 C
71 14-03-2016 05:50:00 1.7 C 83 % -0.87 C
72 14-03-2016 05:55:00 1.7 C 83 % -0.87 C
73 14-03-2016 06:00:00 1.7 C 83 % -0.87 C
74 14-03-2016 06:05:00 1.6 C 83 % -0.97 C
75 14-03-2016 06:10:00 1.6 C 84 % -0.8 C
Sensor: Nr:Datum:Temp:Feuchte:Taupunkt:
Aussen-T/F 76 14-03-2016 06:15:00 1.5 C 83 % -1.06 C
77 14-03-2016 06:20:00 1.4 C 83 % -1.16 C
78 14-03-2016 06:25:00 1.4 C 84 % -1 C
79 14-03-2016 06:30:00 1.4 C 84 % -1 C
80 14-03-2016 06:35:00 1.3 C 83 % -1.26 C
81 14-03-2016 06:40:00 1.2 C 84 % -1.2 C
82 14-03-2016 06:45:00 1.1 C 84 % -1.29 C
83 14-03-2016 06:50:00 0.9 C 84 % -1.49 C
84 14-03-2016 06:55:00 0.9 C 85 % -1.33 C
85 14-03-2016 07:00:00 0.8 C 85 % -1.43 C
86 14-03-2016 07:05:00 0.8 C 86 % -1.27 C
87 14-03-2016 07:10:00 0.8 C 86 % -1.27 C
88 14-03-2016 07:15:00 0.8 C 86 % -1.27 C
89 14-03-2016 07:20:00 0.8 C 87 % -1.11 C
90 14-03-2016 07:25:00 0.8 C 86 % -1.27 C
91 14-03-2016 07:30:00 0.9 C 85 % -1.33 C
92 14-03-2016 07:35:00 1.2 C 83 % -1.36 C
93 14-03-2016 07:40:00 1.4 C 82 % -1.33 C
94 14-03-2016 07:45:00 1.5 C 82 % -1.23 C
95 14-03-2016 07:50:00 1.7 C 82 % -1.03 C
96 14-03-2016 07:55:00 1.8 C 81 % -1.1 C
97 14-03-2016 08:00:00 1.8 C 79 % -1.44 C
98 14-03-2016 08:05:00 1.8 C 79 % -1.44 C
99 14-03-2016 08:10:00 1.9 C 79 % -1.35 C
100 14-03-2016 08:15:00 1.9 C 79 % -1.35 C
Sensor: Nr:Datum:Temp:Feuchte:Taupunkt:
Aussen-T/F 101 14-03-2016 08:20:00 1.9 C 79 % -1.35 C
102 14-03-2016 08:25:00 2 C 79 % -1.25 C
103 14-03-2016 08:30:00 2.1 C 79 % -1.15 C
104 14-03-2016 08:35:00 2.1 C 79 % -1.15 C
105 14-03-2016 08:40:00 2.1 C 78 % -1.33 C
106 14-03-2016 08:45:00 2.2 C 77 % -1.4 C
107 14-03-2016 08:50:00 2.2 C 78 % -1.23 C
108 14-03-2016 08:55:00 2.2 C 77 % -1.4 C
109 14-03-2016 09:00:00 2.2 C 78 % -1.23 C
110 14-03-2016 09:05:00 2.2 C 79 % -1.05 C
111 14-03-2016 09:10:00 2.1 C 77 % -1.5 C
112 14-03-2016 09:15:00 2.2 C 77 % -1.4 C
113 14-03-2016 09:20:00 2.3 C 77 % -1.31 C
114 14-03-2016 09:25:00 2.3 C 77 % -1.31 C
115 14-03-2016 09:30:00 2.4 C 76 % -1.39 C
116 14-03-2016 09:35:00 2.6 C 75 % -1.37 C
117 14-03-2016 09:40:00 2.8 C 74 % -1.36 C
118 14-03-2016 09:45:00 3 C 74 % -1.17 C
119 14-03-2016 09:50:00 3.1 C 74 % -1.07 C
120 14-03-2016 09:55:00 3.1 C 73 % -1.26 C
121 14-03-2016 10:00:00 3.3 C 73 % -1.06 C
122 14-03-2016 10:05:00 3.4 C 72 % -1.16 C
123 14-03-2016 10:10:00 3.6 C 72 % -0.96 C
124 14-03-2016 10:15:00 3.7 C 71 % -1.06 C
125 14-03-2016 10:20:00 3.8 C 71 % -0.96 C
Sensor: Nr:Datum:Temp:Feuchte:Taupunkt:
Aussen-T/F 126 14-03-2016 10:25:00 3.9 C 70 % -1.06 C
127 14-03-2016 10:30:00 4 C 71 % -0.77 C
128 14-03-2016 10:35:00 4.1 C 70 % -0.87 C
129 14-03-2016 10:40:00 4.2 C 70 % -0.77 C
130 14-03-2016 10:45:00 4.3 C 68 % -1.07 C
131 14-03-2016 10:50:00 4.3 C 69 % -0.87 C
132 14-03-2016 10:55:00 4.4 C 68 % -0.98 C
133 14-03-2016 11:00:00 4.5 C 68 % -0.88 C
134 14-03-2016 11:05:00 4.7 C 67 % -0.89 C
135 14-03-2016 11:10:00 4.8 C 67 % -0.8 C
136 14-03-2016 11:15:00 5 C 66 % -0.81 C
137 14-03-2016 11:20:00 5.2 C 65 % -0.83 C
138 14-03-2016 11:25:00 5.3 C 65 % -0.73 C
139 14-03-2016 11:30:00 5.4 C 64 % -0.85 C
140 14-03-2016 11:35:00 5.4 C 65 % -0.64 C
141 14-03-2016 11:40:00 5.5 C 64 % -0.75 C
142 14-03-2016 11:45:00 5.6 C 64 % -0.66 C
143 14-03-2016 11:50:00 5.7 C 64 % -0.56 C
144 14-03-2016 11:55:00 5.7 C 64 % -0.56 C
145 14-03-2016 12:00:00 5.7 C 64 % -0.56 C
146 14-03-2016 12:05:00 5.8 C 63 % -0.69 C
147 14-03-2016 12:10:00 6.1 C 62 % -0.62 C
148 14-03-2016 12:15:00 6.2 C 62 % -0.53 C
149 14-03-2016 12:20:00 6.4 C 62 % -0.34 C
150 14-03-2016 12:25:00 6.5 C 62 % -0.24 C
Sensor: Nr:Datum:Temp:Feuchte:Taupunkt:
Aussen-T/F 151 14-03-2016 12:30:00 6.6 C 60 % -0.6 C
152 14-03-2016 12:35:00 6.7 C 60 % -0.5 C
153 14-03-2016 12:40:00 6.8 C 60 % -0.41 C
154 14-03-2016 12:45:00 7 C 59 % -0.45 C
155 14-03-2016 12:50:00 6.9 C 60 % -0.31 C
156 14-03-2016 12:55:00 7 C 58 % -0.68 C
157 14-03-2016 13:00:00 7 C 59 % -0.45 C
158 14-03-2016 13:05:00 7.1 C 59 % -0.36 C
159 14-03-2016 13:10:00 7.2 C 58 % -0.5 C
160 14-03-2016 13:15:00 7.2 C 58 % -0.5 C
161 14-03-2016 13:20:00 7.3 C 58 % -0.4 C
162 14-03-2016 13:25:00 7.3 C 58 % -0.4 C
163 14-03-2016 13:30:00 7.3 C 59 % -0.17 C
164 14-03-2016 13:35:00 7.3 C 58 % -0.4 C
165 14-03-2016 13:40:00 7.2 C 58 % -0.5 C
166 14-03-2016 13:45:00 7.4 C 57 % -0.55 C
167 14-03-2016 13:50:00 7.6 C 55 % -0.85 C
168 14-03-2016 13:55:00 7.7 C 56 % -0.51 C
169 14-03-2016 14:00:00 7.8 C 56 % -0.41 C
170 14-03-2016 14:05:00 7.9 C 55 % -0.57 C
171 14-03-2016 14:10:00 8.1 C 55 % -0.38 C
172 14-03-2016 14:15:00 8.2 C 55 % -0.29 C
173 14-03-2016 14:20:00 8.3 C 53 % -0.7 C
174 14-03-2016 14:25:00 8.3 C 53 % -0.7 C
175 14-03-2016 14:30:00 8.3 C 54 % -0.45 C
Sensor: Nr:Datum:Temp:Feuchte:Taupunkt:
Aussen-T/F 176 14-03-2016 14:35:00 8.3 C 53 % -0.7 C
177 14-03-2016 14:40:00 8.3 C 53 % -0.7 C
178 14-03-2016 14:45:00 8.3 C 52 % -0.96 C
179 14-03-2016 14:50:00 8.3 C 53 % -0.7 C
180 14-03-2016 14:55:00 8.4 C 52 % -0.87 C
181 14-03-2016 15:00:00 8.4 C 51 % -1.13 C
182 14-03-2016 15:05:00 8.4 C 51 % -1.13 C
183 14-03-2016 15:10:00 8.4 C 51 % -1.13 C
184 14-03-2016 15:15:00 8.4 C 51 % -1.13 C
185 14-03-2016 15:20:00 8.4 C 51 % -1.13 C
186 14-03-2016 15:25:00 8.4 C 52 % -0.87 C
187 14-03-2016 15:30:00 8.4 C 51 % -1.13 C
188 14-03-2016 15:35:00 8.5 C 51 % -1.04 C
189 14-03-2016 15:40:00 8.7 C 50 % -1.13 C
190 14-03-2016 15:45:00 8.8 C 49 % -1.31 C
191 14-03-2016 15:50:00 9 C 48 % -1.41 C
192 14-03-2016 15:55:00 9.2 C 49 % -0.94 C
193 14-03-2016 16:00:00 9.2 C 49 % -0.94 C
194 14-03-2016 16:05:00 9.3 C 48 % -1.13 C
195 14-03-2016 16:10:00 9.4 C 48 % -1.04 C
196 14-03-2016 16:15:00 9.6 C 46 % -1.43 C
197 14-03-2016 16:20:00 9.7 C 48 % -0.76 C
198 14-03-2016 16:25:00 9.8 C 47 % -0.96 C
199 14-03-2016 16:30:00 9.8 C 46 % -1.25 C
200 14-03-2016 16:35:00 9.9 C 45 % -1.46 C
Sensor: Nr:Datum:Temp:Feuchte:Taupunkt:
Aussen-T/F 201 14-03-2016 16:40:00 10.2 C 47 % -0.59 C
202 14-03-2016 16:45:00 10.5 C 46 % -0.61 C
203 14-03-2016 16:50:00 10.7 C 46 % -0.43 C
204 14-03-2016 16:55:00 10.8 C 45 % -0.64 C
205 14-03-2016 17:00:00 10.8 C 45 % -0.64 C
206 14-03-2016 17:05:00 10.7 C 45 % -0.73 C
207 14-03-2016 17:10:00 10.6 C 45 % -0.82 C
208 14-03-2016 17:15:00 10.6 C 47 % -0.23 C
209 14-03-2016 17:20:00 10.8 C 46 % -0.34 C
210 14-03-2016 17:25:00 10.9 C 48 % 0.34 C
211 14-03-2016 17:30:00 11 C 44 % -0.77 C
212 14-03-2016 17:35:00 10.8 C 51 % 1.08 C
213 14-03-2016 17:40:00 10.6 C 48 % 0.06 C
214 14-03-2016 17:45:00 10.7 C 46 % -0.43 C
215 14-03-2016 17:50:00 10.7 C 50 % 0.72 C
216 14-03-2016 17:55:00 10.4 C 52 % 0.98 C
217 14-03-2016 18:00:00 10.1 C 51 % 0.44 C
218 14-03-2016 18:05:00 9.6 C 54 % 0.76 C
219 14-03-2016 18:10:00 8.9 C 56 % 0.61 C
220 14-03-2016 18:15:00 8.6 C 56 % 0.33 C
221 14-03-2016 18:20:00 8.2 C 58 % 0.44 C
222 14-03-2016 18:25:00 7.7 C 60 % 0.44 C
223 14-03-2016 18:30:00 7.2 C 62 % 0.42 C
224 14-03-2016 18:35:00 6.8 C 63 % 0.26 C
225 14-03-2016 18:40:00 6.6 C 63 % 0.07 C
Sensor: Nr:Datum:Temp:Feuchte:Taupunkt:
Aussen-T/F 226 14-03-2016 18:45:00 6.3 C 64 % 0 C
227 14-03-2016 18:50:00 6 C 65 % -0.07 C
228 14-03-2016 18:55:00 5.8 C 66 % -0.05 C
229 14-03-2016 19:00:00 5.7 C 66 % -0.14 C
230 14-03-2016 19:05:00 5.6 C 66 % -0.24 C
231 14-03-2016 19:10:00 5.4 C 66 % -0.43 C
232 14-03-2016 19:15:00 5.3 C 67 % -0.32 C
233 14-03-2016 19:20:00 5.3 C 67 % -0.32 C
234 14-03-2016 19:25:00 5.2 C 67 % -0.41 C
235 14-03-2016 19:30:00 5.1 C 66 % -0.71 C
236 14-03-2016 19:35:00 5.1 C 68 % -0.31 C
237 14-03-2016 19:40:00 5.1 C 68 % -0.31 C
238 14-03-2016 19:45:00 5 C 68 % -0.4 C
239 14-03-2016 19:50:00 5 C 68 % -0.4 C
240 14-03-2016 19:55:00 5 C 68 % -0.4 C
241 14-03-2016 20:00:00 5 C 68 % -0.4 C
242 14-03-2016 20:05:00 4.9 C 68 % -0.5 C
243 14-03-2016 20:10:00 4.9 C 68 % -0.5 C
244 14-03-2016 20:15:00 4.9 C 68 % -0.5 C
245 14-03-2016 20:20:00 4.8 C 68 % -0.59 C
246 14-03-2016 20:25:00 4.7 C 68 % -0.69 C
247 14-03-2016 20:30:00 4.6 C 68 % -0.78 C
248 14-03-2016 20:35:00 4.5 C 68 % -0.88 C
249 14-03-2016 20:40:00 4.4 C 68 % -0.98 C
250 14-03-2016 20:45:00 4.3 C 68 % -1.07 C
Sensor: Nr:Datum:Temp:Feuchte:Taupunkt:
Aussen-T/F 251 14-03-2016 20:50:00 4.3 C 68 % -1.07 C
252 14-03-2016 20:55:00 4.2 C 68 % -1.17 C
253 14-03-2016 21:00:00 4.2 C 69 % -0.97 C
254 14-03-2016 21:05:00 4 C 69 % -1.16 C
255 14-03-2016 21:10:00 3.9 C 70 % -1.06 C
256 14-03-2016 21:15:00 3.8 C 70 % -1.16 C
257 14-03-2016 21:20:00 3.7 C 71 % -1.06 C
258 14-03-2016 21:25:00 3.7 C 71 % -1.06 C
259 14-03-2016 21:30:00 3.6 C 71 % -1.15 C
260 14-03-2016 21:35:00 3.6 C 72 % -0.96 C
261 14-03-2016 21:40:00 3.5 C 71 % -1.25 C
262 14-03-2016 21:45:00 3.4 C 72 % -1.16 C
263 14-03-2016 21:50:00 3.3 C 72 % -1.25 C
264 14-03-2016 21:55:00 3.2 C 73 % -1.16 C
265 14-03-2016 22:00:00 3.1 C 73 % -1.26 C
266 14-03-2016 22:05:00 2.9 C 73 % -1.45 C
267 14-03-2016 22:10:00 2.8 C 74 % -1.36 C
268 14-03-2016 22:15:00 2.7 C 74 % -1.46 C
269 14-03-2016 22:20:00 2.7 C 75 % -1.28 C
270 14-03-2016 22:25:00 2.6 C 75 % -1.37 C
271 14-03-2016 22:30:00 2.6 C 75 % -1.37 C
272 14-03-2016 22:35:00 2.5 C 75 % -1.47 C
273 14-03-2016 22:40:00 2.4 C 76 % -1.39 C
274 14-03-2016 22:45:00 2.4 C 75 % -1.57 C
275 14-03-2016 22:50:00 2.4 C 75 % -1.57 C
Sensor: Nr:Datum:Temp:Feuchte:Taupunkt:
Aussen-T/F 276 14-03-2016 22:55:00 2.4 C 75 % -1.57 C
277 14-03-2016 23:00:00 2.3 C 76 % -1.48 C
278 14-03-2016 23:05:00 2.2 C 77 % -1.4 C
279 14-03-2016 23:10:00 2.2 C 77 % -1.4 C
280 14-03-2016 23:15:00 2.2 C 77 % -1.4 C
281 14-03-2016 23:20:00 2.2 C 76 % -1.58 C
282 14-03-2016 23:25:00 2.2 C 76 % -1.58 C
283 14-03-2016 23:30:00 2.1 C 77 % -1.5 C
284 14-03-2016 23:35:00 2 C 78 % -1.42 C
285 14-03-2016 23:40:00 1.9 C 79 % -1.35 C
286 14-03-2016 23:45:00 1.8 C 79 % -1.44 C
287 14-03-2016 23:50:00 1.7 C 79 % -1.54 C
288 14-03-2016 23:55:00 1.6 C 80 % -1.47 C

Legende:
   Min
   Max


Maximal/Minimal-Werte vom 14.03.2016 - 14.03.2016

Sensor Min Max Avg
Temp
(Aussen-T/F)
0.4 °C
14-03-2016  01:20:00
11 °C
14-03-2016  17:30:00
4.2 °C
Feuchte
(Aussen-T/F)
44 %
14-03-2016  17:30:00
89 %
14-03-2016  01:25:00
71.02 %
Taupunkt
(Aussen-T/F)
-1.58 C
14-03-2016  23:20:00
1.08 C
14-03-2016  17:35:00
-0.86 C

Die Daten stammen von einer Davis Vantage Pro 2 Wetter-Station und werden unter Linux mit der Software wview2wettercgi und aufbereitet. Alle Angaben erfolgen ohne Gewähr für ihre Vollständigkeit oder Richtigkeit.
Kontakt: Rainer Krienke krienke@uni-koblenz.de . Meine Webseiten an der Uni Koblenz oder privat.
Version: $Revision: 0.78 $